createdAt,value
2019-05-18T00:01:18.186Z,5.47
2019-05-18T00:03:46.607Z,6.33
2019-05-18T00:06:15.076Z,5.10
2019-05-18T00:08:43.514Z,5.22
2019-05-18T00:11:11.954Z,4.75
2019-05-18T00:13:40.369Z,4.95
2019-05-18T00:16:08.791Z,6.15
2019-05-18T00:18:37.226Z,5.30
2019-05-18T00:21:06.117Z,5.83
2019-05-18T00:23:34.579Z,7.20
2019-05-18T00:26:03.003Z,7.22
2019-05-18T00:28:31.413Z,5.80
2019-05-18T00:30:59.851Z,6.10
2019-05-18T00:33:28.291Z,6.10
2019-05-18T00:35:56.716Z,5.17
2019-05-18T00:38:25.135Z,5.05
2019-05-18T00:40:53.597Z,4.67
2019-05-18T00:43:22.045Z,4.90
2019-05-18T00:45:50.526Z,4.25
2019-05-18T00:48:18.968Z,5.10
2019-05-18T00:50:47.385Z,4.40
2019-05-18T00:53:15.819Z,5.00
2019-05-18T00:55:44.234Z,6.70
2019-05-18T00:58:12.683Z,4.35
2019-05-18T01:00:41.105Z,6.20
2019-05-18T01:03:09.713Z,4.22
2019-05-18T01:05:38.365Z,4.30
2019-05-18T01:08:07.002Z,4.58
2019-05-18T01:10:35.429Z,5.08
2019-05-18T01:13:03.854Z,4.08
2019-05-18T01:15:32.291Z,4.97
2019-05-18T01:18:02.370Z,4.45
2019-05-18T01:20:30.871Z,4.40
2019-05-18T01:22:59.277Z,7.62
2019-05-18T01:25:29.250Z,4.30
2019-05-18T01:27:57.663Z,4.97
2019-05-18T01:30:26.470Z,5.22
2019-05-18T01:32:54.894Z,5.65
2019-05-18T01:35:23.367Z,6.62
2019-05-18T01:37:51.825Z,6.20
2019-05-18T01:40:21.685Z,5.50
2019-05-18T01:42:50.191Z,5.75
2019-05-18T01:45:19.089Z,5.58
2019-05-18T01:47:47.520Z,6.12
2019-05-18T01:50:16.069Z,5.60
2019-05-18T01:52:44.507Z,6.28
2019-05-18T01:55:13.763Z,6.58
2019-05-18T01:57:42.486Z,6.58
2019-05-18T02:00:11.645Z,5.70
2019-05-18T02:02:40.130Z,4.95
2019-05-18T02:05:09.115Z,4.72
2019-05-18T02:07:37.523Z,5.95
2019-05-18T02:10:06.433Z,5.20
2019-05-18T02:12:34.839Z,5.47
2019-05-18T02:15:04.515Z,6.00
2019-05-18T02:17:32.939Z,5.90
2019-05-18T02:20:01.383Z,7.42
2019-05-18T02:22:29.791Z,5.65
2019-05-18T02:24:58.201Z,5.67
2019-05-18T02:27:26.644Z,5.58
2019-05-18T02:29:55.055Z,4.90
2019-05-18T02:32:23.475Z,5.05
2019-05-18T02:34:51.899Z,5.58
2019-05-18T02:37:20.339Z,5.35
2019-05-18T02:39:50.404Z,5.95
2019-05-18T02:42:18.883Z,7.05
2019-05-18T02:44:47.313Z,6.37
2019-05-18T02:47:15.832Z,6.30
2019-05-18T02:49:44.248Z,6.28
2019-05-18T02:52:12.697Z,7.37
2019-05-18T02:54:41.183Z,6.28
2019-05-18T02:57:09.637Z,5.85
2019-05-18T02:59:38.055Z,5.55
2019-05-18T03:02:06.476Z,5.40
2019-05-18T03:04:34.924Z,5.30
2019-05-18T03:07:03.339Z,8.90
2019-05-18T03:09:31.775Z,5.42
2019-05-18T03:12:00.267Z,7.53
2019-05-18T03:14:28.772Z,9.43
2019-05-18T03:16:57.187Z,7.20
2019-05-18T03:19:25.620Z,6.03
2019-05-18T03:21:54.027Z,5.97
2019-05-18T03:24:25.363Z,5.78
2019-05-18T03:26:53.782Z,5.58
2019-05-18T03:29:22.217Z,5.08
2019-05-18T03:31:50.636Z,5.28
2019-05-18T03:34:19.040Z,6.92
2019-05-18T03:36:47.475Z,5.80
2019-05-18T03:39:15.877Z,5.25
2019-05-18T03:41:44.315Z,5.05
2019-05-18T03:44:12.743Z,5.25
2019-05-18T03:46:41.172Z,6.22
2019-05-18T03:49:25.491Z,5.72
2019-05-18T03:51:39.748Z,7.37
2019-05-18T03:54:08.161Z,6.05
2019-05-18T03:56:36.609Z,4.83
2019-05-18T03:59:05.100Z,5.10
2019-05-18T04:01:33.523Z,5.30
2019-05-18T04:04:01.954Z,7.62
2019-05-18T04:06:30.368Z,4.95
2019-05-18T04:08:58.873Z,5.42
2019-05-18T04:11:27.348Z,5.72
2019-05-18T04:13:55.788Z,4.90
2019-05-18T04:16:24.200Z,5.95
2019-05-18T04:18:52.643Z,5.10
2019-05-18T04:21:21.135Z,6.28
2019-05-18T04:23:49.558Z,6.15
2019-05-18T04:26:17.991Z,5.62
2019-05-18T04:28:46.411Z,5.33
2019-05-18T04:31:14.843Z,6.15
2019-05-18T04:33:43.257Z,10.45
2019-05-18T04:36:11.690Z,13.65
2019-05-18T04:38:40.100Z,6.62
2019-05-18T04:41:08.530Z,6.28
2019-05-18T04:43:36.947Z,9.10
2019-05-18T04:46:05.380Z,8.90
2019-05-18T04:48:33.863Z,11.48
2019-05-18T04:51:02.273Z,16.12
2019-05-18T04:53:30.729Z,15.18
2019-05-18T04:55:59.220Z,13.20
2019-05-18T04:58:27.647Z,14.65
2019-05-18T05:00:56.071Z,12.65
2019-05-18T05:03:24.509Z,10.98
2019-05-18T05:05:52.934Z,11.97
2019-05-18T05:08:21.406Z,13.48
2019-05-18T05:10:49.843Z,12.33
2019-05-18T05:13:18.245Z,14.30
2019-05-18T05:15:46.800Z,12.63
2019-05-18T05:18:15.247Z,11.57
2019-05-18T05:20:45.432Z,11.08
2019-05-18T05:23:13.858Z,11.55
2019-05-18T05:25:42.283Z,12.58
2019-05-18T05:28:10.714Z,14.43
2019-05-18T05:30:39.160Z,12.58
2019-05-18T05:33:07.579Z,13.10
2019-05-18T05:35:37.734Z,12.50
2019-05-18T05:38:06.162Z,11.53
2019-05-18T05:40:34.594Z,11.20
2019-05-18T05:43:04.020Z,10.70
2019-05-18T05:45:32.446Z,9.80
2019-05-18T05:48:00.873Z,10.90
2019-05-18T05:50:36.123Z,13.78
2019-05-18T05:52:59.566Z,11.00
2019-05-18T05:55:27.990Z,10.35
2019-05-18T05:57:56.409Z,9.88
2019-05-18T06:00:24.858Z,10.45
2019-05-18T06:02:53.287Z,10.60
2019-05-18T06:05:21.722Z,10.45
2019-05-18T06:07:50.134Z,10.53
2019-05-18T06:10:18.734Z,11.22
2019-05-18T06:12:47.323Z,10.95
2019-05-18T06:15:15.849Z,14.33
2019-05-18T06:17:44.273Z,11.25
2019-05-18T06:20:12.949Z,10.72
2019-05-18T06:22:41.364Z,10.63
2019-05-18T06:25:10.083Z,11.20
2019-05-18T06:27:38.660Z,10.50
2019-05-18T06:30:07.740Z,11.75
2019-05-18T06:32:36.201Z,10.65
2019-05-18T06:35:05.984Z,10.38
2019-05-18T06:37:34.537Z,10.82
2019-05-18T06:40:03.047Z,11.25
2019-05-18T06:42:31.491Z,10.78
2019-05-18T06:44:59.939Z,11.90
2019-05-18T06:47:28.563Z,10.75
2019-05-18T06:50:18.176Z,12.05
2019-05-18T06:52:46.966Z,10.50
2019-05-18T06:55:15.766Z,10.63
2019-05-18T06:57:47.934Z,11.25
2019-05-18T07:00:16.833Z,11.38
2019-05-18T07:02:45.595Z,12.25
2019-05-18T07:05:14.350Z,11.95
2019-05-18T07:07:43.116Z,12.10
2019-05-18T07:10:12.161Z,11.83
2019-05-18T07:12:40.591Z,12.10
2019-05-18T07:15:10.193Z,12.75
2019-05-18T07:17:38.965Z,13.48
2019-05-18T07:20:07.760Z,16.23
2019-05-18T07:22:36.222Z,14.58
2019-05-18T07:25:06.633Z,14.00
2019-05-18T07:27:35.441Z,14.65
2019-05-18T07:30:06.316Z,13.20
2019-05-18T07:32:35.157Z,15.13
2019-05-18T07:35:03.936Z,13.85
2019-05-18T07:37:32.405Z,13.58
2019-05-18T07:43:42.156Z,13.90
2019-05-18T07:46:10.861Z,15.48
2019-05-18T07:48:39.339Z,15.18
2019-05-18T07:51:08.039Z,14.10
2019-05-18T07:53:36.502Z,14.90
2019-05-18T07:56:04.956Z,15.30
2019-05-18T07:58:33.495Z,13.70
2019-05-18T08:01:02.174Z,13.93
2019-05-18T08:03:30.983Z,14.38
2019-05-18T08:05:59.725Z,12.98
2019-05-18T08:08:28.209Z,13.50
2019-05-18T08:10:56.666Z,13.75
2019-05-18T08:13:25.105Z,13.90
2019-05-18T08:15:53.997Z,13.78
2019-05-18T08:18:22.431Z,15.43
2019-05-18T08:20:50.893Z,13.50
2019-05-18T08:23:19.334Z,13.15
2019-05-18T08:25:47.817Z,13.08
2019-05-18T08:28:16.600Z,13.38
2019-05-18T08:30:45.382Z,12.35
2019-05-18T08:33:14.489Z,11.48
2019-05-18T08:35:43.380Z,11.63
2019-05-18T08:38:11.896Z,11.68
2019-05-18T08:40:40.333Z,11.38
2019-05-18T08:43:09.125Z,12.73
2019-05-18T08:45:37.565Z,13.62
2019-05-18T08:48:06.393Z,12.50
2019-05-18T08:50:35.178Z,13.05
2019-05-18T08:53:03.620Z,12.47
2019-05-18T08:55:32.073Z,11.80
2019-05-18T09:01:29.558Z,11.35
2019-05-18T09:03:58.070Z,10.55
2019-05-18T09:06:26.784Z,10.32
2019-05-18T09:08:55.224Z,11.33
2019-05-18T09:11:23.681Z,11.48
2019-05-18T09:13:52.121Z,9.70
2019-05-18T09:16:20.572Z,7.28
2019-05-18T09:18:49.001Z,7.37
2019-05-18T09:21:17.457Z,7.08
2019-05-18T09:23:45.894Z,6.22
2019-05-18T09:26:14.400Z,5.10
2019-05-18T09:28:44.459Z,4.90
2019-05-18T09:31:12.884Z,5.10
2019-05-18T09:33:41.340Z,6.95
2019-05-18T09:36:10.049Z,6.65
2019-05-18T09:38:38.787Z,6.20
2019-05-18T09:41:07.211Z,7.22
2019-05-18T09:43:35.670Z,5.80
2019-05-18T09:46:04.243Z,6.62
2019-05-18T09:48:33.018Z,6.47
2019-05-18T09:51:01.484Z,5.58
2019-05-18T09:53:30.269Z,4.40
2019-05-18T09:55:58.812Z,5.50
2019-05-18T09:58:27.553Z,5.42
2019-05-18T10:00:55.992Z,4.97
2019-05-18T10:03:24.429Z,7.35
2019-05-18T10:05:52.878Z,7.92
2019-05-18T10:08:21.609Z,7.78
2019-05-18T10:10:50.054Z,6.78
2019-05-18T10:13:18.744Z,6.90
2019-05-18T10:15:47.540Z,7.00
2019-05-18T10:18:16.333Z,9.28
2019-05-18T10:20:44.790Z,7.42
2019-05-18T10:23:14.045Z,7.58
2019-05-18T10:25:43.404Z,7.75
2019-05-18T10:28:12.198Z,5.97
2019-05-18T10:30:40.985Z,6.03
2019-05-18T10:33:09.446Z,6.58
2019-05-18T10:35:37.872Z,5.85
2019-05-18T10:38:06.330Z,11.97
2019-05-18T10:40:35.121Z,6.03
2019-05-18T10:43:03.907Z,5.65
2019-05-18T10:45:32.688Z,6.08
2019-05-18T10:48:01.167Z,6.83
2019-05-18T10:50:29.726Z,6.08
2019-05-18T10:52:58.441Z,5.70
2019-05-18T10:55:27.256Z,6.35
2019-05-18T10:57:55.757Z,8.25
2019-05-18T11:00:26.141Z,6.28
2019-05-18T11:02:54.574Z,6.28
2019-05-18T11:05:23.025Z,6.83
2019-05-18T11:07:51.480Z,5.45
2019-05-18T11:10:21.497Z,6.78
2019-05-18T11:12:49.938Z,7.00
2019-05-18T11:15:20.165Z,6.60
2019-05-18T11:17:48.994Z,8.43
2019-05-18T11:20:17.862Z,7.30
2019-05-18T11:22:46.670Z,5.92
2019-05-18T11:25:16.741Z,6.33
2019-05-18T11:27:45.498Z,5.50
2019-05-18T11:30:14.570Z,7.60
2019-05-18T11:32:43.354Z,5.75
2019-05-18T11:35:12.357Z,6.50
2019-05-18T11:37:41.444Z,5.83
2019-05-18T11:40:10.733Z,8.48
2019-05-18T11:42:39.170Z,6.62
2019-05-18T11:45:10.489Z,5.33
2019-05-18T11:47:38.980Z,7.25
2019-05-18T11:50:09.306Z,6.10
2019-05-18T11:52:38.273Z,6.05
2019-05-18T11:55:07.856Z,7.53
2019-05-18T11:57:36.672Z,6.95
2019-05-18T12:00:08.298Z,5.20
2019-05-18T12:02:37.784Z,4.62
2019-05-18T12:05:07.847Z,5.97
2019-05-18T12:07:36.641Z,5.75
2019-05-18T12:10:07.694Z,6.15
2019-05-18T12:12:36.129Z,5.53
2019-05-18T12:15:09.623Z,5.58
2019-05-18T12:17:38.342Z,5.62
2019-05-18T12:20:09.807Z,5.75
2019-05-18T12:22:38.592Z,4.50
2019-05-18T12:25:09.217Z,7.15
2019-05-18T12:27:37.846Z,6.28
2019-05-18T12:30:10.207Z,5.87
2019-05-18T12:32:38.731Z,5.03
2019-05-18T12:35:09.201Z,4.95
2019-05-18T12:37:37.672Z,4.70
2019-05-18T12:40:08.762Z,4.55
2019-05-18T12:42:37.577Z,4.87
2019-05-18T12:45:07.281Z,5.03
2019-05-18T12:47:35.760Z,4.47
2019-05-18T12:50:07.274Z,4.28
2019-05-18T12:52:36.035Z,5.25
2019-05-18T12:55:06.362Z,5.95
2019-05-18T12:57:35.640Z,11.75
2019-05-18T13:00:07.257Z,5.80
2019-05-18T13:02:35.960Z,5.20
2019-05-18T13:05:06.108Z,4.42
2019-05-18T13:07:34.869Z,4.85
2019-05-18T13:10:05.026Z,5.08
2019-05-18T13:12:33.457Z,5.55
2019-05-18T13:15:01.917Z,5.17
2019-05-18T13:17:30.423Z,4.45
2019-05-18T13:19:58.857Z,5.05
2019-05-18T13:22:27.318Z,6.58
2019-05-18T13:24:55.749Z,7.75
2019-05-18T13:27:38.325Z,6.05
2019-05-18T13:29:54.646Z,6.58
2019-05-18T13:32:23.094Z,6.25
2019-05-18T13:34:51.549Z,5.62
2019-05-18T13:37:19.998Z,4.10
2019-05-18T13:39:48.446Z,3.77
2019-05-18T13:42:16.878Z,3.12
2019-05-18T13:44:45.332Z,4.45
2019-05-18T13:47:13.778Z,4.72
2019-05-18T13:49:42.253Z,4.08
2019-05-18T13:52:10.930Z,4.05
2019-05-18T13:54:39.733Z,4.30
2019-05-18T13:57:08.186Z,3.30
2019-05-18T13:59:36.608Z,4.55
2019-05-18T14:02:05.384Z,3.08
2019-05-18T14:04:33.822Z,2.20
2019-05-18T14:07:02.556Z,2.95
2019-05-18T14:09:30.991Z,3.05
2019-05-18T14:11:59.711Z,4.12
2019-05-18T14:14:28.145Z,3.90
2019-05-18T14:16:56.897Z,5.92
2019-05-18T14:19:25.362Z,4.53
2019-05-18T14:21:53.889Z,3.35
2019-05-18T14:24:22.345Z,3.67
2019-05-18T14:26:50.790Z,3.40
2019-05-18T14:29:19.228Z,4.12
2019-05-18T14:31:47.676Z,5.60
2019-05-18T14:34:16.128Z,5.70
2019-05-18T14:36:44.828Z,3.85
2019-05-18T14:39:13.624Z,4.92
2019-05-18T14:41:42.670Z,4.50
2019-05-18T14:44:11.275Z,4.37
2019-05-18T14:46:39.710Z,4.20
2019-05-18T14:49:08.168Z,4.83
2019-05-18T14:51:36.596Z,5.17
2019-05-18T14:54:05.105Z,4.20
2019-05-18T14:56:33.904Z,6.10
2019-05-18T14:59:02.342Z,4.05
2019-05-18T15:01:30.879Z,3.85
2019-05-18T15:03:59.314Z,4.20
2019-05-18T15:06:27.755Z,5.42
2019-05-18T15:08:56.185Z,4.75
2019-05-18T15:11:24.667Z,5.78
2019-05-18T15:13:53.157Z,4.05
2019-05-18T15:16:21.591Z,5.28
2019-05-18T15:18:50.317Z,3.98
2019-05-18T15:21:19.034Z,4.53
2019-05-18T15:23:47.804Z,3.95
2019-05-18T15:26:16.238Z,3.35
2019-05-18T15:28:44.690Z,5.67
2019-05-18T15:31:13.117Z,5.50
2019-05-18T15:33:41.827Z,5.25
2019-05-18T15:36:10.252Z,4.95
2019-05-18T15:38:38.891Z,4.37
2019-05-18T15:41:07.331Z,4.10
2019-05-18T15:43:35.755Z,6.67
2019-05-18T15:46:04.542Z,4.37
2019-05-18T15:48:33.242Z,3.80
2019-05-18T15:51:01.970Z,3.95
2019-05-18T15:53:30.701Z,4.53
2019-05-18T15:56:06.011Z,5.50
2019-05-18T15:58:29.317Z,4.87
2019-05-18T16:00:57.996Z,4.75
2019-05-18T16:03:26.468Z,4.62
2019-05-18T16:05:54.899Z,3.83
2019-05-18T16:08:23.383Z,4.53
2019-05-18T16:10:51.866Z,4.37
2019-05-18T16:13:20.581Z,4.22
2019-05-18T16:15:49.017Z,4.37
2019-05-18T16:18:17.475Z,4.40
2019-05-18T16:20:46.175Z,4.20
2019-05-18T16:23:14.890Z,3.83
2019-05-18T16:25:43.921Z,4.55
2019-05-18T16:28:12.355Z,6.12
2019-05-18T16:30:40.803Z,4.92
2019-05-18T16:33:09.243Z,5.35
2019-05-18T16:35:37.694Z,4.40
2019-05-18T16:38:06.368Z,4.00
2019-05-18T16:40:35.083Z,3.45
2019-05-18T16:43:03.838Z,3.35
2019-05-18T16:45:32.587Z,4.55
2019-05-18T16:48:01.026Z,3.17
2019-05-18T16:50:29.502Z,2.75
2019-05-18T16:52:58.185Z,2.83
2019-05-18T16:55:26.919Z,2.52
2019-05-18T16:57:55.406Z,5.20
2019-05-18T17:00:24.338Z,3.00
2019-05-18T17:02:55.792Z,2.60
2019-05-18T17:05:24.220Z,2.40
2019-05-18T17:07:52.671Z,4.67
2019-05-18T17:10:21.248Z,3.85
2019-05-18T17:12:50.082Z,3.05
2019-05-18T17:15:18.793Z,3.10
2019-05-18T17:17:47.261Z,3.52
2019-05-18T17:20:15.849Z,3.10
2019-05-18T17:22:44.366Z,2.83
2019-05-18T17:25:13.107Z,3.08
2019-05-18T17:27:41.537Z,3.77
2019-05-18T17:30:10.530Z,2.80
2019-05-18T17:32:38.965Z,5.03
2019-05-18T17:35:08.617Z,3.17
2019-05-18T17:37:37.049Z,2.65
2019-05-18T17:40:06.475Z,2.77
2019-05-18T17:42:35.172Z,3.12
2019-05-18T17:45:05.462Z,3.37
2019-05-18T17:47:34.223Z,4.00
2019-05-18T17:50:03.228Z,3.10
2019-05-18T17:52:31.756Z,2.40
2019-05-18T17:55:00.194Z,2.65
2019-05-18T17:57:28.975Z,8.48
2019-05-18T17:59:57.681Z,3.92
2019-05-18T18:02:26.128Z,2.67
2019-05-18T18:04:54.575Z,3.10
2019-05-18T18:07:23.045Z,3.10
2019-05-18T18:09:51.478Z,3.15
2019-05-18T18:12:19.913Z,3.98
2019-05-18T18:14:48.370Z,3.52
2019-05-18T18:17:17.824Z,4.03
2019-05-18T18:19:46.529Z,4.92
2019-05-18T18:22:15.249Z,4.83
2019-05-18T18:24:44.005Z,5.15
2019-05-18T18:27:24.647Z,6.42
2019-05-18T18:29:42.647Z,5.50
2019-05-18T18:32:11.089Z,4.10
2019-05-18T18:34:39.550Z,4.60
2019-05-18T18:37:07.984Z,4.83
2019-05-18T18:39:36.700Z,6.17
2019-05-18T18:42:05.199Z,5.05
2019-05-18T18:44:33.760Z,5.22
2019-05-18T18:47:02.205Z,4.30
2019-05-18T18:49:30.906Z,4.65
2019-05-18T18:51:59.349Z,3.47
2019-05-18T18:54:28.046Z,4.78
2019-05-18T18:56:56.497Z,3.95
2019-05-18T18:59:25.203Z,4.80
2019-05-18T19:01:53.914Z,3.47
2019-05-18T19:04:22.344Z,4.72
2019-05-18T19:06:50.800Z,4.50
2019-05-18T19:09:19.494Z,6.00
2019-05-18T19:11:48.016Z,5.25
2019-05-18T19:14:16.452Z,5.47
2019-05-18T19:16:44.915Z,4.67
2019-05-18T19:19:13.344Z,5.12
2019-05-18T19:21:41.782Z,4.92
2019-05-18T19:24:10.237Z,4.25
2019-05-18T19:26:38.693Z,3.67
2019-05-18T19:29:07.206Z,3.92
2019-05-18T19:31:35.638Z,3.90
2019-05-18T19:34:04.160Z,6.65
2019-05-18T19:36:32.851Z,3.90
2019-05-18T19:39:01.307Z,3.87
2019-05-18T19:41:29.751Z,3.83
2019-05-18T19:43:58.486Z,4.03
2019-05-18T19:46:27.310Z,3.90
2019-05-18T19:48:55.750Z,3.87
2019-05-18T19:51:24.478Z,40.88
2019-05-18T19:53:52.989Z,23.40
2019-05-18T19:56:21.447Z,12.15
2019-05-18T19:58:49.872Z,10.53
2019-05-18T20:01:18.330Z,15.93
2019-05-18T20:03:46.760Z,10.55
2019-05-18T20:06:15.476Z,11.08
2019-05-18T20:08:43.908Z,7.92
2019-05-18T20:11:12.362Z,13.00
2019-05-18T20:13:41.031Z,7.97
2019-05-18T20:16:09.749Z,8.23
2019-05-18T20:18:38.181Z,6.15
2019-05-18T20:21:06.620Z,7.50
2019-05-18T20:23:35.324Z,5.47
2019-05-18T20:26:03.754Z,4.58
2019-05-18T20:28:32.458Z,4.67
2019-05-18T20:31:00.893Z,4.20
2019-05-18T20:33:29.594Z,4.65
2019-05-18T20:35:58.025Z,4.92
2019-05-18T20:38:26.483Z,4.47
2019-05-18T20:40:54.932Z,4.12
2019-05-18T20:43:23.701Z,4.40
2019-05-18T20:45:52.129Z,4.10
2019-05-18T20:48:20.585Z,5.55
2019-05-18T20:50:49.022Z,4.30
2019-05-18T20:53:17.487Z,5.00
2019-05-18T20:55:45.921Z,6.25
2019-05-18T20:58:14.809Z,4.12
2019-05-18T21:00:43.557Z,4.17
2019-05-18T21:03:12.038Z,4.45
2019-05-18T21:05:40.755Z,4.55
2019-05-18T21:08:09.192Z,4.60
2019-05-18T21:10:37.643Z,4.70
2019-05-18T21:13:06.077Z,5.25
2019-05-18T21:15:34.788Z,4.70
2019-05-18T21:18:03.479Z,4.70
2019-05-18T21:20:32.175Z,4.45
2019-05-18T21:23:00.619Z,5.12
2019-05-18T21:25:29.343Z,5.00
2019-05-18T21:27:57.773Z,5.67
2019-05-18T21:30:26.453Z,6.47
2019-05-18T21:32:54.916Z,4.80
2019-05-18T21:35:23.344Z,5.08
2019-05-18T21:37:51.797Z,7.65
2019-05-18T21:40:20.308Z,4.50
2019-05-18T21:42:48.753Z,3.60
2019-05-18T21:45:17.623Z,4.17
2019-05-18T21:47:46.408Z,3.70
2019-05-18T21:50:15.626Z,4.20
2019-05-18T21:52:44.067Z,4.60
2019-05-18T21:55:13.147Z,4.53
2019-05-18T21:57:41.820Z,5.55
2019-05-18T22:00:10.509Z,6.58
2019-05-18T22:02:39.090Z,4.72
2019-05-18T22:05:07.836Z,6.58
2019-05-18T22:07:36.525Z,5.25
2019-05-18T22:10:07.120Z,5.17
2019-05-18T22:12:35.559Z,5.15
2019-05-18T22:15:06.548Z,5.30
2019-05-18T22:17:36.629Z,5.03
2019-05-18T22:20:06.609Z,5.28
2019-05-18T22:22:35.325Z,5.92
2019-05-18T22:25:03.755Z,5.50
2019-05-18T22:27:32.222Z,5.78
2019-05-18T22:30:00.648Z,5.65
2019-05-18T22:32:29.357Z,6.33
2019-05-18T22:34:57.801Z,5.08
2019-05-18T22:37:26.244Z,5.00
2019-05-18T22:39:54.929Z,6.37
2019-05-18T22:42:24.072Z,8.30
2019-05-18T22:44:52.511Z,5.00
2019-05-18T22:47:20.949Z,5.58
2019-05-18T22:49:49.397Z,6.37
2019-05-18T22:52:17.823Z,5.15
2019-05-18T22:54:46.533Z,5.92
2019-05-18T22:57:14.977Z,5.83
2019-05-18T22:59:43.685Z,5.50
2019-05-18T23:02:12.126Z,5.53
2019-05-18T23:04:40.569Z,5.62
2019-05-18T23:07:09.004Z,5.53
2019-05-18T23:09:37.448Z,5.83
2019-05-18T23:12:06.142Z,5.58
2019-05-18T23:14:34.602Z,5.22
2019-05-18T23:17:03.043Z,6.75
2019-05-18T23:19:31.523Z,5.25
2019-05-18T23:22:00.190Z,6.08
2019-05-18T23:24:28.615Z,5.50
2019-05-18T23:26:58.633Z,5.75
2019-05-18T23:29:27.317Z,6.50
2019-05-18T23:31:56.018Z,6.00
2019-05-18T23:34:24.743Z,6.05
2019-05-18T23:36:53.489Z,5.83
2019-05-18T23:39:21.952Z,6.28
2019-05-18T23:41:50.470Z,6.12
2019-05-18T23:44:18.896Z,6.80
2019-05-18T23:46:47.329Z,7.58
2019-05-18T23:49:15.783Z,7.37
2019-05-18T23:51:44.259Z,6.58
2019-05-18T23:54:12.716Z,5.90
2019-05-18T23:56:41.155Z,5.72
2019-05-18T23:59:09.616Z,5.67
